Time;durP1;ratioP1;P1;durP2;ratioP2;P2;SDS_P1;SDS_P2;PMS_P1;PMS_P2;Temp;Humidity;BMP_temperature;BMP_pressure;BME280_temperature;BME280_humidity;BME280_pressure;Samples;Min_cycle;Max_cycle;Signal;HPM_P1;HPM_P2
2024/03/19 00:01:39;;;;;;;;;;;;;;;;;;4973706;28;19926;-84
2024/03/19 00:04:07;;;;;;;;;;;;;;;;;;4972440;28;19995;-82
2024/03/19 00:06:34;;;;;;;;;;;;;;;;;;4980755;28;19930;-82
2024/03/19 00:09:01;;;;;;;;;;;;;;;;;;4972349;28;19930;-82
2024/03/19 00:11:28;;;;;;;;;;;;;;;;;;4971987;28;20021;-79
2024/03/19 00:13:55;;;;;;;;;;;;;;;;;;4970386;28;19984;-80
2024/03/19 00:16:22;;;;;;;;;;;;;;;;;;4971518;28;19991;-82
2024/03/19 00:18:49;;;;;;;;;;;;;;;;;;4972000;28;19930;-82
2024/03/19 00:21:16;;;;;;;;;;;;;;;;;;4972390;28;19930;-81
2024/03/19 00:23:43;;;;;;;;;;;;;;;;;;4970484;28;19926;-81
2024/03/19 00:26:10;;;;;;;;;;;;;;;;;;4968882;28;19938;-80
2024/03/19 00:28:38;;;;;;;;;;;;;;;;;;4972037;28;19934;-81
2024/03/19 00:31:06;;;;;;;;;;;;;;;;;;4988952;28;20038;-82
2024/03/19 00:33:33;;;;;;;;;;;;;;;;;;4975433;28;19937;-82
2024/03/19 00:36:00;;;;;;;;;;;;;;;;;;4969835;28;19938;-80
2024/03/19 00:38:27;;;;;;;;;;;;;;;;;;4968995;28;19972;-81
2024/03/19 00:40:54;;;;;;;;;;;;;;;;;;4962714;28;19926;-81
2024/03/19 00:43:22;;;;;;;;;;;;;;;;;;4969945;28;19930;-81
2024/03/19 00:45:49;;;;;;;;;;;;;;;;;;4966326;28;20397;-80
2024/03/19 00:48:16;;;;;;;;;;;;;;;;;;4971637;28;20377;-82
2024/03/19 00:50:43;;;;;;;;;;;;;;;;;;4968548;28;19930;-82
2024/03/19 00:53:10;;;;;;;;;;;;;;;;;;4970181;28;19942;-82
2024/03/19 00:55:38;;;;;;;;;;;;;;;;;;4969514;28;19976;-82
2024/03/19 00:58:05;;;;;;;;;;;;;;;;;;4965880;28;19953;-81
2024/03/19 01:00:32;;;;;;;;;;;;;;;;;;4971111;28;19960;-82
2024/03/19 01:02:59;;;;;;;;;;;;;;;;;;4970036;28;19926;-82
2024/03/19 01:05:25;;;;;;;;;;;;;;;;;;4970710;28;20007;-81
2024/03/19 01:07:52;;;;;;;;;;;;;;;;;;4969767;28;19931;-80
2024/03/19 01:10:19;;;;;;;;;;;;;;;;;;4963329;28;20377;-79
2024/03/19 01:12:46;;;;;;;;;;;;;;;;;;4982772;28;19968;-78
2024/03/19 01:15:13;;;;;;;;;;;;;;;;;;4970489;28;20000;-79
2024/03/19 01:17:40;;;;;;;;;;;;;;;;;;4969307;28;20339;-79
2024/03/19 01:20:09;;;;;;;;;;;;;;;;;;4970619;28;20861;-79
2024/03/19 01:22:37;;;;;;;;;;;;;;;;;;4970239;28;19937;-79
2024/03/19 01:25:04;;;;;;;;;;;;;;;;;;4972696;28;20030;-79
2024/03/19 01:27:31;;;;;;;;;;;;;;;;;;4970369;28;20329;-78
2024/03/19 01:29:58;;;;;;;;;;;;;;;;;;4973037;28;19995;-78
2024/03/19 01:32:25;;;;;;;;;;;;;;;;;;4971086;28;19930;-78
2024/03/19 01:34:52;;;;;;;;;;;;;;;;;;4971520;28;19930;-79
2024/03/19 01:37:19;;;;;;;;;;;;;;;;;;4966773;28;19934;-79
2024/03/19 01:39:46;;;;;;;;;;;;;;;;;;4964405;28;19936;-78
2024/03/19 01:42:14;;;;;;;;;;;;;;;;;;4967324;28;19969;-77
2024/03/19 01:44:41;;;;;;;;;;;;;;;;;;4968108;28;19934;-78
2024/03/19 01:47:08;;;;;;;;;;;;;;;;;;4968051;28;20010;-79
2024/03/19 01:49:35;;;;;;;;;;;;;;;;;;4969099;28;19930;-79
2024/03/19 01:52:02;;;;;;;;;;;;;;;;;;4968651;28;19934;-80
2024/03/19 01:54:29;;;;;;;;;;;;;;;;;;4963231;28;20020;-79
2024/03/19 01:56:56;;;;;;;;;;;;;;;;;;4969966;28;19930;-79
2024/03/19 01:59:24;;;;;;;;;;;;;;;;;;4961690;28;19982;-80
2024/03/19 02:01:51;;;;;;;;;;;;;;;;;;4967199;28;20009;-79
2024/03/19 02:04:18;;;;;;;;;;;;;;;;;;4964673;28;19996;-80
2024/03/19 02:06:45;;;;;;;;;;;;;;;;;;4972081;28;20502;-80
2024/03/19 02:09:13;;;;;;;;;;;;;;;;;;4972380;28;19992;-80
2024/03/19 02:11:40;;;;;;;;;;;;;;;;;;4960224;28;20140;-80
2024/03/19 02:14:08;;;;;;;;;;;;;;;;;;4971077;28;20026;-79
2024/03/19 02:16:36;;;;;;;;;;;;;;;;;;4972071;28;19941;-79
2024/03/19 02:19:04;;;;;;;;;;;;;;;;;;4975921;28;20013;-78
2024/03/19 02:21:31;;;;;;;;;;;;;;;;;;4972426;28;19952;-79
2024/03/19 02:23:58;;;;;;;;;;;;;;;;;;4971300;28;20741;-79
2024/03/19 02:26:26;;;;;;;;;;;;;;;;;;4971764;28;20351;-79
2024/03/19 02:28:53;;;;;;;;;;;;;;;;;;4971852;28;20014;-79
2024/03/19 02:31:22;;;;;;;;;;;;;;;;;;4971025;28;19995;-80
2024/03/19 02:33:49;;;;;;;;;;;;;;;;;;4971290;28;19930;-80
2024/03/19 02:36:16;;;;;;;;;;;;;;;;;;4978177;28;20381;-80
2024/03/19 02:38:43;;;;;;;;;;;;;;;;;;4971744;28;19934;-78
2024/03/19 02:41:10;;;;;;;;;;;;;;;;;;4971716;28;19937;-79
2024/03/19 02:43:38;;;;;;;;;;;;;;;;;;4971719;28;20023;-78
2024/03/19 02:46:05;;;;;;;;;;;;;;;;;;4971258;28;19974;-80
2024/03/19 02:48:32;;;;;;;;;;;;;;;;;;4969942;28;19927;-81
2024/03/19 02:50:59;;;;;;;;;;;;;;;;;;5008738;28;19928;-81
2024/03/19 02:53:27;;;;;;;;;;;;;;;;;;4985940;28;19934;-81
2024/03/19 02:55:54;;;;;;;;;;;;;;;;;;4972655;28;20495;-81
2024/03/19 02:58:21;;;;;;;;;;;;;;;;;;4971648;28;20412;-81
2024/03/19 03:00:48;;;;;;;;;;;;;;;;;;4972886;28;19969;-80
2024/03/19 03:03:15;;;;;;;;;;;;;;;;;;4969557;28;19930;-81
2024/03/19 03:05:42;;;;;;;;;;;;;;;;;;4960222;28;19934;-81
2024/03/19 03:08:09;;;;;;;;;;;;;;;;;;4968900;28;19993;-81
2024/03/19 03:10:37;;;;;;;;;;;;;;;;;;4972050;28;19937;-80
2024/03/19 03:13:04;;;;;;;;;;;;;;;;;;5002411;28;19984;-80
2024/03/19 03:15:31;;;;;;;;;;;;;;;;;;4972463;28;20034;-79
2024/03/19 03:17:59;;;;;;;;;;;;;;;;;;4978080;28;19934;-80
2024/03/19 03:20:26;;;;;;;;;;;;;;;;;;4971288;28;19937;-80
2024/03/19 03:22:53;;;;;;;;;;;;;;;;;;4970625;28;19979;-80
2024/03/19 03:25:21;;;;;;;;;;;;;;;;;;4971451;28;19936;-79
2024/03/19 03:27:48;;;;;;;;;;;;;;;;;;4973487;28;20032;-79
2024/03/19 03:30:16;;;;;;;;;;;;;;;;;;4972790;28;19930;-79
2024/03/19 03:32:43;;;;;;;;;;;;;;;;;;4971574;28;19952;-79
2024/03/19 03:35:10;;;;;;;;;;;;;;;;;;4969119;28;19930;-79
2024/03/19 03:37:37;;;;;;;;;;;;;;;;;;4971294;28;19934;-79
2024/03/19 03:40:09;;;;;;;;;;;;;;;;;;4970494;28;19926;-79
2024/03/19 03:42:36;;;;;;;;;;;;;;;;;;4974900;28;19926;-80
2024/03/19 03:45:04;;;;;;;;;;;;;;;;;;4972238;28;19930;-81
2024/03/19 03:47:31;;;;;;;;;;;;;;;;;;4974488;28;19930;-78
2024/03/19 03:49:58;;;;;;;;;;;;;;;;;;4971726;28;19930;-79
2024/03/19 03:52:29;;;;;;;;;;;;;;;;;;4971577;28;19937;-78
2024/03/19 03:54:56;;;;;;;;;;;;;;;;;;4974056;28;19930;-78
2024/03/19 03:57:23;;;;;;;;;;;;;;;;;;4968212;28;19964;-78
2024/03/19 03:59:51;;;;;;;;;;;;;;;;;;4970663;28;19930;-78
2024/03/19 04:02:18;;;;;;;;;;;;;;;;;;4970365;28;19967;-78
2024/03/19 04:04:46;;;;;;;;;;;;;;;;;;4968801;28;19930;-77
2024/03/19 04:07:13;;;;;;;;;;;;;;;;;;4960587;28;19934;-80
2024/03/19 04:09:40;;;;;;;;;;;;;;;;;;4970509;28;19938;-79
2024/03/19 04:12:07;;;;;;;;;;;;;;;;;;4970652;28;19949;-79
2024/03/19 04:14:34;;;;;;;;;;;;;;;;;;4962576;28;19938;-77
2024/03/19 04:17:01;;;;;;;;;;;;;;;;;;4970133;28;19934;-78
2024/03/19 04:19:28;;;;;;;;;;;;;;;;;;4969862;28;19926;-79
2024/03/19 04:21:55;;;;;;;;;;;;;;;;;;4961711;28;19958;-79
2024/03/19 04:24:22;;;;;;;;;;;;;;;;;;4991582;28;20379;-81
2024/03/19 04:26:49;;;;;;;;;;;;;;;;;;4980235;28;19926;-81
2024/03/19 04:29:18;;;;;;;;;;;;;;;;;;4965116;28;21480;-81
2024/03/19 04:31:46;;;;;;;;;;;;;;;;;;4970149;28;19973;-81
2024/03/19 04:34:13;;;;;;;;;;;;;;;;;;4971387;28;20663;-80
2024/03/19 04:36:40;;;;;;;;;;;;;;;;;;4971106;28;20293;-79
2024/03/19 04:39:10;;;;;;;;;;;;;;;;;;4970005;28;20344;-80
2024/03/19 04:41:37;;;;;;;;;;;;;;;;;;4969330;28;19930;-80
2024/03/19 04:44:04;;;;;;;;;;;;;;;;;;4969981;28;19926;-78
2024/03/19 04:46:31;;;;;;;;;;;;;;;;;;4956877;28;20697;-79
2024/03/19 04:48:58;;;;;;;;;;;;;;;;;;4966828;28;19944;-77
2024/03/19 04:51:26;;;;;;;;;;;;;;;;;;4969506;28;20469;-78
2024/03/19 04:53:53;;;;;;;;;;;;;;;;;;4969702;28;19930;-78
2024/03/19 04:56:20;;;;;;;;;;;;;;;;;;4970103;28;19933;-79
2024/03/19 04:58:47;;;;;;;;;;;;;;;;;;4970132;28;20021;-78
2024/03/19 05:01:14;;;;;;;;;;;;;;;;;;4969560;28;19934;-79
2024/03/19 05:03:41;;;;;;;;;;;;;;;;;;4968296;28;20043;-79
2024/03/19 05:06:08;;;;;;;;;;;;;;;;;;4962586;28;19984;-80
2024/03/19 05:08:35;;;;;;;;;;;;;;;;;;5007512;28;20034;-80
2024/03/19 05:11:02;;;;;;;;;;;;;;;;;;4974347;28;20461;-81
2024/03/19 05:13:30;;;;;;;;;;;;;;;;;;4960606;28;19925;-82
2024/03/19 05:15:57;;;;;;;;;;;;;;;;;;4971755;28;19966;-83
2024/03/19 05:18:24;;;;;;;;;;;;;;;;;;4972499;28;19926;-82
2024/03/19 05:20:51;;;;;;;;;;;;;;;;;;4970945;28;19972;-82
2024/03/19 05:23:18;;;;;;;;;;;;;;;;;;4969107;28;19991;-83
2024/03/19 05:25:45;;;;;;;;;;;;;;;;;;4997485;28;19935;-84
2024/03/19 05:28:12;;;;;;;;;;;;;;;;;;4967964;28;20326;-83
2024/03/19 05:30:39;;;;;;;;;;;;;;;;;;4968843;28;20060;-76
2024/03/19 05:33:06;;;;;;;;;;;;;;;;;;4963660;28;19934;-82
2024/03/19 05:35:33;;;;;;;;;;;;;;;;;;4979100;28;19944;-83
2024/03/19 05:38:00;;;;;;;;;;;;;;;;;;4969369;28;19980;-81
2024/03/19 05:40:27;;;;;;;;;;;;;;;;;;4969341;28;20377;-79
2024/03/19 05:42:54;;;;;;;;;;;;;;;;;;4957379;28;19967;-88
2024/03/19 05:45:22;;;;;;;;;;;;;;;;;;4972582;28;20000;-91
2024/03/19 05:47:49;;;;;;;;;;;;;;;;;;4970615;28;19969;-87
2024/03/19 05:50:16;;;;;;;;;;;;;;;;;;4972222;28;20013;-89
2024/03/19 05:52:43;;;;;;;;;;;;;;;;;;4976924;28;19929;-90
2024/03/19 05:55:12;;;;;;;;;;;;;;;;;;5039501;28;19930;-88
2024/03/19 05:57:39;;;;;;;;;;;;;;;;;;4977157;28;19973;-86
2024/03/19 06:00:07;;;;;;;;;;;;;;;;;;4972628;28;20339;-88
2024/03/19 06:02:34;;;;;;;;;;;;;;;;;;4972767;28;19926;-85
2024/03/19 06:05:01;;;;;;;;;;;;;;;;;;4974660;28;19930;-86
2024/03/19 06:07:31;;;;;;;;;;;;;;;;;;4999488;28;20389;-85
2024/03/19 06:09:58;;;;;;;;;;;;;;;;;;4978480;28;20009;-90
2024/03/19 06:12:25;;;;;;;;;;;;;;;;;;4976609;28;19930;-87
2024/03/19 06:14:52;;;;;;;;;;;;;;;;;;4979126;28;19934;-86
2024/03/19 06:17:19;;;;;;;;;;;;;;;;;;4978216;28;19930;-87
2024/03/19 06:19:47;;;;;;;;;;;;;;;;;;4979131;28;19963;-87
2024/03/19 06:22:14;;;;;;;;;;;;;;;;;;4969585;28;20465;-80
2024/03/19 06:24:41;;;;;;;;;;;;;;;;;;4968116;28;19992;-80
2024/03/19 06:27:08;;;;;;;;;;;;;;;;;;4956818;28;19931;-80
2024/03/19 06:29:36;;;;;;;;;;;;;;;;;;4969367;28;19937;-80
2024/03/19 06:32:03;;;;;;;;;;;;;;;;;;4967591;28;19971;-81
2024/03/19 06:34:30;;;;;;;;;;;;;;;;;;4965019;28;19961;-76
2024/03/19 06:36:57;;;;;;;;;;;;;;;;;;4960891;28;19931;-77
2024/03/19 06:39:24;;;;;;;;;;;;;;;;;;4966616;28;19931;-78
2024/03/19 06:41:52;;;;;;;;;;;;;;;;;;4981572;28;19929;-78
2024/03/19 06:44:19;;;;;;;;;;;;;;;;;;4970304;28;19934;-78
2024/03/19 06:46:46;;;;;;;;;;;;;;;;;;4974258;28;19979;-78
2024/03/19 06:49:13;;;;;;;;;;;;;;;;;;4969857;28;19934;-78
2024/03/19 06:51:41;;;;;;;;;;;;;;;;;;4972276;28;19930;-78
2024/03/19 06:54:08;;;;;;;;;;;;;;;;;;4969342;28;19961;-79
2024/03/19 06:56:35;;;;;;;;;;;;;;;;;;4975125;28;19934;-75
2024/03/19 06:59:02;;;;;;;;;;;;;;;;;;5021484;28;19983;-75
2024/03/19 07:01:29;;;;;;;;;;;;;;;;;;4967616;28;19933;-75
2024/03/19 07:03:56;;;;;;;;;;;;;;;;;;4964210;28;20060;-75
2024/03/19 07:06:23;;;;;;;;;;;;;;;;;;4968210;28;19972;-74
2024/03/19 07:08:53;;;;;;;;;;;;;;;;;;5014637;28;19936;-73
2024/03/19 07:11:20;;;;;;;;;;;;;;;;;;4968468;28;19930;-80
2024/03/19 07:13:47;;;;;;;;;;;;;;;;;;5008231;28;19960;-80
2024/03/19 07:16:14;;;;;;;;;;;;;;;;;;4968960;28;20003;-78
2024/03/19 07:18:42;;;;;;;;;;;;;;;;;;4969384;28;19930;-79
2024/03/19 07:21:09;;;;;;;;;;;;;;;;;;4963149;28;20442;-78
2024/03/19 07:23:36;;;;;;;;;;;;;;;;;;4969242;28;19977;-74
2024/03/19 07:26:03;;;;;;;;;;;;;;;;;;4966466;28;19969;-75
2024/03/19 07:28:30;;;;;;;;;;;;;;;;;;4968928;28;19977;-75
2024/03/19 07:30:57;;;;;;;;;;;;;;;;;;4969140;28;20033;-74
2024/03/19 07:33:24;;;;;;;;;;;;;;;;;;4963501;28;20753;-74
2024/03/19 07:35:51;;;;;;;;;;;;;;;;;;4964246;28;20017;-73
2024/03/19 07:38:19;;;;;;;;;;;;;;;;;;4968296;28;19977;-73
2024/03/19 07:40:46;;;;;;;;;;;;;;;;;;4969864;28;19951;-73
2024/03/19 07:43:14;;;;;;;;;;;;;;;;;;4963141;28;19974;-74
2024/03/19 07:45:42;;;;;;;;;;;;;;;;;;4962254;28;20028;-73
2024/03/19 07:48:12;;;;;;;;;;;;;;;;;;4963194;28;19941;-73
2024/03/19 07:50:39;;;;;;;;;;;;;;;;;;4970884;28;20044;-73
2024/03/19 07:53:06;;;;;;;;;;;;;;;;;;4960327;28;19937;-73
2024/03/19 07:55:34;;;;;;;;;;;;;;;;;;4966192;28;19995;-74
2024/03/19 07:58:01;;;;;;;;;;;;;;;;;;4957095;28;20021;-73
2024/03/19 08:00:28;;;;;;;;;;;;;;;;;;4966867;28;20437;-74
2024/03/19 08:02:55;;;;;;;;;;;;;;;;;;4969285;28;20537;-73
2024/03/19 08:05:22;;;;;;;;;;;;;;;;;;4967759;28;20370;-76
2024/03/19 08:07:49;;;;;;;;;;;;;;;;;;4968263;28;20312;-73
2024/03/19 08:10:16;;;;;;;;;;;;;;;;;;4965428;28;19934;-73
2024/03/19 08:12:43;;;;;;;;;;;;;;;;;;4966581;28;20393;-73
2024/03/19 08:15:10;;;;;;;;;;;;;;;;;;4965682;28;19965;-73
2024/03/19 08:17:37;;;;;;;;;;;;;;;;;;4967958;28;19937;-74
2024/03/19 08:20:07;;;;;;;;;;;;;;;;;;5003628;28;19982;-74
2024/03/19 08:22:34;;;;;;;;;;;;;;;;;;4968012;28;19930;-74
2024/03/19 08:25:01;;;;;;;;;;;;;;;;;;4962081;28;20417;-74
2024/03/19 08:27:28;;;;;;;;;;;;;;;;;;4964069;28;20019;-74
2024/03/19 08:29:55;;;;;;;;;;;;;;;;;;4954137;28;19978;-74
2024/03/19 08:32:22;;;;;;;;;;;;;;;;;;4965589;28;20313;-74
2024/03/19 08:34:49;;;;;;;;;;;;;;;;;;4964919;28;19930;-73
2024/03/19 08:37:16;;;;;;;;;;;;;;;;;;4967931;28;21340;-74
2024/03/19 08:39:43;;;;;;;;;;;;;;;;;;4967403;28;19934;-75
2024/03/19 08:42:10;;;;;;;;;;;;;;;;;;4967772;28;19949;-74
2024/03/19 08:44:37;;;;;;;;;;;;;;;;;;4959630;28;19930;-73
2024/03/19 08:47:05;;;;;;;;;;;;;;;;;;4964849;28;19973;-74
2024/03/19 08:49:32;;;;;;;;;;;;;;;;;;4967750;28;19930;-74
2024/03/19 08:51:59;;;;;;;;;;;;;;;;;;4963557;28;19961;-74
2024/03/19 08:54:26;;;;;;;;;;;;;;;;;;4968326;28;19930;-74
2024/03/19 08:56:53;;;;;;;;;;;;;;;;;;4965295;28;20008;-74
2024/03/19 08:59:20;;;;;;;;;;;;;;;;;;4968025;28;20420;-73
2024/03/19 09:01:47;;;;;;;;;;;;;;;;;;4967001;28;19985;-74
2024/03/19 09:04:14;;;;;;;;;;;;;;;;;;4967423;28;20065;-73
2024/03/19 09:06:42;;;;;;;;;;;;;;;;;;4966193;28;19981;-73
2024/03/19 09:09:09;;;;;;;;;;;;;;;;;;4967380;28;19937;-73
2024/03/19 09:11:36;;;;;;;;;;;;;;;;;;4967959;28;20026;-73
2024/03/19 09:14:03;;;;;;;;;;;;;;;;;;4966940;28;19989;-73
2024/03/19 09:16:30;;;;;;;;;;;;;;;;;;4967622;28;19930;-73
2024/03/19 09:18:58;;;;;;;;;;;;;;;;;;4963569;28;20046;-73
2024/03/19 09:21:25;;;;;;;;;;;;;;;;;;4961783;28;19975;-73
2024/03/19 09:23:52;;;;;;;;;;;;;;;;;;4967372;28;19930;-75
2024/03/19 09:26:19;;;;;;;;;;;;;;;;;;4955732;28;19937;-74
2024/03/19 09:28:47;;;;;;;;;;;;;;;;;;4967338;28;19976;-74
2024/03/19 09:31:14;;;;;;;;;;;;;;;;;;4962239;28;20308;-73
2024/03/19 09:33:41;;;;;;;;;;;;;;;;;;4966492;28;19989;-75
2024/03/19 09:36:08;;;;;;;;;;;;;;;;;;4964323;28;20313;-74
2024/03/19 09:38:35;;;;;;;;;;;;;;;;;;4969840;28;20002;-75
2024/03/19 09:41:02;;;;;;;;;;;;;;;;;;4980297;28;19931;-76
2024/03/19 09:43:29;;;;;;;;;;;;;;;;;;4963185;28;19930;-75
2024/03/19 09:45:56;;;;;;;;;;;;;;;;;;4962301;28;20013;-75
2024/03/19 09:48:23;;;;;;;;;;;;;;;;;;4952223;28;19930;-75
2024/03/19 09:50:51;;;;;;;;;;;;;;;;;;4960977;28;19938;-80
2024/03/19 09:53:18;;;;;;;;;;;;;;;;;;4956020;28;19934;-78
2024/03/19 09:55:45;;;;;;;;;;;;;;;;;;4959152;28;19930;-79
2024/03/19 09:58:13;;;;;;;;;;;;;;;;;;4961165;28;19930;-79
2024/03/19 10:00:40;;;;;;;;;;;;;;;;;;4967676;28;20334;-79
2024/03/19 10:03:07;;;;;;;;;;;;;;;;;;4965248;28;19961;-78
2024/03/19 10:05:34;;;;;;;;;;;;;;;;;;4960163;28;20039;-79
2024/03/19 10:08:01;;;;;;;;;;;;;;;;;;4959251;28;19934;-77
2024/03/19 10:10:29;;;;;;;;;;;;;;;;;;4958287;28;19934;-77
2024/03/19 10:12:56;;;;;;;;;;;;;;;;;;4964712;28;19929;-77
2024/03/19 10:15:24;;;;;;;;;;;;;;;;;;4957081;28;19930;-76
2024/03/19 10:17:51;;;;;;;;;;;;;;;;;;4962564;28;19941;-76
2024/03/19 10:20:18;;;;;;;;;;;;;;;;;;4968739;28;20392;-76
2024/03/19 10:22:46;;;;;;;;;;;;;;;;;;4965537;28;20397;-76
2024/03/19 10:25:14;;;;;;;;;;;;;;;;;;4970015;28;19930;-76
2024/03/19 10:27:41;;;;;;;;;;;;;;;;;;4960729;28;19935;-78
2024/03/19 10:30:08;;;;;;;;;;;;;;;;;;4955866;28;19966;-78
2024/03/19 10:32:36;;;;;;;;;;;;;;;;;;4960037;28;19934;-77
2024/03/19 10:35:04;;;;;;;;;;;;;;;;;;4968457;28;20024;-77
2024/03/19 10:37:31;;;;;;;;;;;;;;;;;;4967217;28;19991;-79
2024/03/19 10:39:58;;;;;;;;;;;;;;;;;;4969331;28;19983;-77
2024/03/19 10:42:25;;;;;;;;;;;;;;;;;;4968445;28;19934;-77
2024/03/19 10:44:52;;;;;;;;;;;;;;;;;;4968097;28;19981;-77
2024/03/19 10:47:19;;;;;;;;;;;;;;;;;;4968789;28;19938;-77
2024/03/19 10:49:48;;;;;;;;;;;;;;;;;;4961364;28;19941;-77
2024/03/19 10:52:15;;;;;;;;;;;;;;;;;;4966545;28;19988;-77
2024/03/19 10:54:42;;;;;;;;;;;;;;;;;;4969297;28;19930;-78
2024/03/19 10:57:09;;;;;;;;;;;;;;;;;;4968819;28;20022;-76
2024/03/19 10:59:36;;;;;;;;;;;;;;;;;;4969588;28;19965;-75
2024/03/19 11:02:03;;;;;;;;;;;;;;;;;;4965670;28;20412;-76
2024/03/19 11:04:30;;;;;;;;;;;;;;;;;;4975547;28;20199;-76
2024/03/19 11:06:58;;;;;;;;;;;;;;;;;;4980870;28;19971;-77
2024/03/19 11:09:25;;;;;;;;;;;;;;;;;;4969261;28;19934;-77
2024/03/19 11:11:52;;;;;;;;;;;;;;;;;;4960616;28;19978;-74
2024/03/19 11:14:20;;;;;;;;;;;;;;;;;;4961252;28;20188;-71
2024/03/19 11:16:47;;;;;;;;;;;;;;;;;;4955400;28;19937;-73
2024/03/19 11:19:13;;;;;;;;;;;;;;;;;;4961250;28;19969;-73
2024/03/19 11:21:40;;;;;;;;;;;;;;;;;;4965657;28;19931;-73
2024/03/19 11:24:07;;;;;;;;;;;;;;;;;;4980528;28;19930;-73
2024/03/19 11:26:34;;;;;;;;;;;;;;;;;;4964515;28;19934;-73
2024/03/19 11:29:01;;;;;;;;;;;;;;;;;;4962776;28;20365;-73
2024/03/19 11:31:29;;;;;;;;;;;;;;;;;;4964657;28;19937;-73
2024/03/19 11:33:56;;;;;;;;;;;;;;;;;;4967755;28;19930;-73
2024/03/19 11:36:23;;;;;;;;;;;;;;;;;;4961773;28;19974;-75
2024/03/19 11:38:50;;;;;;;;;;;;;;;;;;4967476;28;19937;-75
2024/03/19 11:41:17;;;;;;;;;;;;;;;;;;4970311;28;19976;-73
2024/03/19 11:43:44;;;;;;;;;;;;;;;;;;4964089;28;19989;-76
2024/03/19 11:46:11;;;;;;;;;;;;;;;;;;4967589;28;19938;-75
2024/03/19 11:48:38;;;;;;;;;;;;;;;;;;4966555;28;19930;-75
2024/03/19 11:51:05;;;;;;;;;;;;;;;;;;4965398;28;19930;-74
2024/03/19 11:53:32;;;;;;;;;;;;;;;;;;4963613;28;20015;-74
2024/03/19 11:56:00;;;;;;;;;;;;;;;;;;4966422;28;20465;-75
2024/03/19 11:58:28;;;;;;;;;;;;;;;;;;4965188;28;19931;-74
2024/03/19 12:00:55;;;;;;;;;;;;;;;;;;4960632;28;20382;-74
2024/03/19 12:03:22;;;;;;;;;;;;;;;;;;4962006;28;19938;-77
2024/03/19 12:05:50;;;;;;;;;;;;;;;;;;4966110;28;19934;-74
2024/03/19 12:08:17;;;;;;;;;;;;;;;;;;4960451;28;19983;-75
2024/03/19 12:10:44;;;;;;;;;;;;;;;;;;4960722;28;21707;-74
2024/03/19 12:13:11;;;;;;;;;;;;;;;;;;4960092;28;19948;-75
2024/03/19 12:15:38;;;;;;;;;;;;;;;;;;4965583;28;19940;-75
2024/03/19 12:18:05;;;;;;;;;;;;;;;;;;4963603;28;19983;-75
2024/03/19 12:20:32;;;;;;;;;;;;;;;;;;4960537;28;19932;-73
2024/03/19 12:22:59;;;;;;;;;;;;;;;;;;4963490;28;19930;-72
2024/03/19 12:25:27;;;;;;;;;;;;;;;;;;4962019;28;19969;-74
2024/03/19 12:27:54;;;;;;;;;;;;;;;;;;4960939;28;19931;-75
2024/03/19 12:30:21;;;;;;;;;;;;;;;;;;4968401;28;19973;-75
2024/03/19 12:32:48;;;;;;;;;;;;;;;;;;4959075;28;19930;-74
2024/03/19 12:35:15;;;;;;;;;;;;;;;;;;4960879;28;19930;-74
2024/03/19 12:37:42;;;;;;;;;;;;;;;;;;4965045;28;20563;-74
2024/03/19 12:40:11;;;;;;;;;;;;;;;;;;4964257;28;19982;-74
2024/03/19 12:42:38;;;;;;;;;;;;;;;;;;4957886;28;20294;-73
2024/03/19 12:45:07;;;;;;;;;;;;;;;;;;4966949;28;19930;-74
2024/03/19 12:47:34;;;;;;;;;;;;;;;;;;4963795;28;19940;-74
2024/03/19 12:50:01;;;;;;;;;;;;;;;;;;4962961;28;19991;-74
2024/03/19 12:52:28;;;;;;;;;;;;;;;;;;4979851;28;19930;-75
2024/03/19 12:54:55;;;;;;;;;;;;;;;;;;4962329;28;20032;-74
2024/03/19 12:57:22;;;;;;;;;;;;;;;;;;4998909;28;20084;-76
2024/03/19 12:59:50;;;;;;;;;;;;;;;;;;4965415;28;19930;-75
2024/03/19 13:02:17;;;;;;;;;;;;;;;;;;4971835;28;19938;-74
2024/03/19 13:04:44;;;;;;;;;;;;;;;;;;4965666;28;19957;-74
2024/03/19 13:07:11;;;;;;;;;;;;;;;;;;4973407;28;20365;-75
2024/03/19 13:09:38;;;;;;;;;;;;;;;;;;4993479;28;20377;-73
2024/03/19 13:12:05;;;;;;;;;;;;;;;;;;4996566;28;19930;-74
2024/03/19 13:14:32;;;;;;;;;;;;;;;;;;4959330;28;20033;-73
2024/03/19 13:16:59;;;;;;;;;;;;;;;;;;4994930;28;19934;-73
2024/03/19 13:19:26;;;;;;;;;;;;;;;;;;4963568;28;19934;-75
2024/03/19 13:21:53;;;;;;;;;;;;;;;;;;4963346;28;19956;-75
2024/03/19 13:24:21;;;;;;;;;;;;;;;;;;4962018;28;19976;-75
2024/03/19 13:26:48;;;;;;;;;;;;;;;;;;4969066;28;19930;-74
2024/03/19 13:29:15;;;;;;;;;;;;;;;;;;4965677;28;20390;-84
2024/03/19 13:31:43;;;;;;;;;;;;;;;;;;4991703;28;19962;-81
2024/03/19 13:34:10;;;;;;;;;;;;;;;;;;4966771;28;19930;-81
2024/03/19 13:36:37;;;;;;;;;;;;;;;;;;4972626;28;19995;-77
2024/03/19 13:39:04;;;;;;;;;;;;;;;;;;4963638;28;19934;-82
2024/03/19 13:41:31;;;;;;;;;;;;;;;;;;4964721;28;19968;-71
2024/03/19 13:43:58;;;;;;;;;;;;;;;;;;4963671;28;19934;-71
2024/03/19 13:46:26;;;;;;;;;;;;;;;;;;5021663;28;19958;-80
2024/03/19 13:48:53;;;;;;;;;;;;;;;;;;4967456;28;20020;-79
2024/03/19 13:51:20;;;;;;;;;;;;;;;;;;4967917;28;20458;-80
2024/03/19 13:53:49;;;;;;;;;;;;;;;;;;4965463;28;19978;-80
2024/03/19 13:56:16;;;;;;;;;;;;;;;;;;4994552;28;19934;-79
2024/03/19 13:58:43;;;;;;;;;;;;;;;;;;4967054;28;20301;-80
2024/03/19 14:01:11;;;;;;;;;;;;;;;;;;4998206;28;20007;-80
2024/03/19 14:03:37;;;;;;;;;;;;;;;;;;5008133;28;20306;-71
2024/03/19 14:06:04;;;;;;;;;;;;;;;;;;5019794;28;19932;-71
2024/03/19 14:08:32;;;;;;;;;;;;;;;;;;4968324;28;19937;-71
2024/03/19 14:11:00;;;;;;;;;;;;;;;;;;4972340;28;19944;-71
2024/03/19 14:13:27;;;;;;;;;;;;;;;;;;4970075;28;20020;-71
2024/03/19 14:15:54;;;;;;;;;;;;;;;;;;4973839;28;19928;-72
2024/03/19 14:18:21;;;;;;;;;;;;;;;;;;4969427;28;20035;-72
2024/03/19 14:20:49;;;;;;;;;;;;;;;;;;4978651;28;20357;-72
2024/03/19 14:23:16;;;;;;;;;;;;;;;;;;5024499;28;19930;-72
2024/03/19 14:25:43;;;;;;;;;;;;;;;;;;4969820;28;19934;-76
2024/03/19 14:28:10;;;;;;;;;;;;;;;;;;4965874;28;20014;-79
2024/03/19 14:30:37;;;;;;;;;;;;;;;;;;4967256;28;19933;-82
2024/03/19 14:33:07;;;;;;;;;;;;;;;;;;4973819;28;19957;-82
2024/03/19 14:35:34;;;;;;;;;;;;;;;;;;4971505;28;19931;-82
2024/03/19 14:38:01;;;;;;;;;;;;;;;;;;5012812;28;19930;-81
2024/03/19 14:40:28;;;;;;;;;;;;;;;;;;4976169;28;20010;-83
2024/03/19 14:42:55;;;;;;;;;;;;;;;;;;4976121;28;19990;-81
2024/03/19 14:45:22;;;;;;;;;;;;;;;;;;4983615;28;19934;-80
2024/03/19 14:47:49;;;;;;;;;;;;;;;;;;4990793;28;19930;-82
2024/03/19 14:50:16;;;;;;;;;;;;;;;;;;4993186;28;19980;-82
2024/03/19 14:52:44;;;;;;;;;;;;;;;;;;4967336;28;19945;-82
2024/03/19 14:55:13;;;;;;;;;;;;;;;;;;4972684;28;19967;-82
2024/03/19 14:57:40;;;;;;;;;;;;;;;;;;4971115;28;19930;-81
2024/03/19 15:00:09;;;;;;;;;;;;;;;;;;4962732;28;20008;-82
2024/03/19 15:02:36;;;;;;;;;;;;;;;;;;4975455;28;19941;-83
2024/03/19 15:05:03;;;;;;;;;;;;;;;;;;4966409;28;19958;-83
2024/03/19 15:07:30;;;;;;;;;;;;;;;;;;4969510;28;19930;-81
2024/03/19 15:09:58;;;;;;;;;;;;;;;;;;4968257;28;20021;-83
2024/03/19 15:12:25;;;;;;;;;;;;;;;;;;4966937;28;19930;-82
2024/03/19 15:14:52;;;;;;;;;;;;;;;;;;4965174;28;19930;-82
2024/03/19 15:17:19;;;;;;;;;;;;;;;;;;4969047;28;19995;-83
2024/03/19 15:19:45;;;;;;;;;;;;;;;;;;4982068;28;19934;-83
2024/03/19 15:22:13;;;;;;;;;;;;;;;;;;4969760;28;19954;-83
2024/03/19 15:24:41;;;;;;;;;;;;;;;;;;4978709;28;19971;-83
2024/03/19 15:27:08;;;;;;;;;;;;;;;;;;4962959;28;19934;-81
2024/03/19 15:29:35;;;;;;;;;;;;;;;;;;4979702;28;19937;-83
2024/03/19 15:32:02;;;;;;;;;;;;;;;;;;4973195;28;20377;-85
2024/03/19 15:34:30;;;;;;;;;;;;;;;;;;4969841;28;19953;-80
2024/03/19 15:36:57;;;;;;;;;;;;;;;;;;4970198;28;20389;-83
2024/03/19 15:39:24;;;;;;;;;;;;;;;;;;4985609;28;20363;-82
2024/03/19 15:41:53;;;;;;;;;;;;;;;;;;4968531;28;20390;-82
2024/03/19 15:44:20;;;;;;;;;;;;;;;;;;4983416;28;19930;-83
2024/03/19 15:46:47;;;;;;;;;;;;;;;;;;4967256;28;19934;-83
2024/03/19 15:49:15;;;;;;;;;;;;;;;;;;4956877;28;19958;-82
2024/03/19 15:51:42;;;;;;;;;;;;;;;;;;4969340;28;19944;-82
2024/03/19 15:54:08;;;;;;;;;;;;;;;;;;4971794;28;19930;-83
2024/03/19 15:56:35;;;;;;;;;;;;;;;;;;4963702;28;19930;-83
2024/03/19 15:59:02;;;;;;;;;;;;;;;;;;4973479;28;19927;-82
2024/03/19 16:01:30;;;;;;;;;;;;;;;;;;4958625;28;20369;-82
2024/03/19 16:03:58;;;;;;;;;;;;;;;;;;4960787;28;20198;-84
2024/03/19 16:06:28;;;;;;;;;;;;;;;;;;4959229;28;19934;-85
2024/03/19 16:08:57;;;;;;;;;;;;;;;;;;4964717;28;20446;-80
2024/03/19 16:11:24;;;;;;;;;;;;;;;;;;4965740;28;19936;-81
2024/03/19 16:13:53;;;;;;;;;;;;;;;;;;4968687;28;19930;-83
2024/03/19 16:16:21;;;;;;;;;;;;;;;;;;4975164;28;19981;-83
2024/03/19 16:18:48;;;;;;;;;;;;;;;;;;4963680;28;19963;-82
2024/03/19 16:21:16;;;;;;;;;;;;;;;;;;4979353;28;19934;-85
2024/03/19 16:23:46;;;;;;;;;;;;;;;;;;4964327;28;19931;-82
2024/03/19 16:26:14;;;;;;;;;;;;;;;;;;4965381;28;20452;-83
2024/03/19 16:28:47;;;;;;;;;;;;;;;;;;4975933;28;19930;-85
2024/03/19 16:31:15;;;;;;;;;;;;;;;;;;4963800;28;19936;-89
2024/03/19 16:33:42;;;;;;;;;;;;;;;;;;4986067;28;19968;-86
2024/03/19 16:36:11;;;;;;;;;;;;;;;;;;4968701;28;20377;-84
2024/03/19 16:38:40;;;;;;;;;;;;;;;;;;4977109;28;19930;-85
2024/03/19 16:41:07;;;;;;;;;;;;;;;;;;4968989;28;19999;-82
2024/03/19 16:43:34;;;;;;;;;;;;;;;;;;4963606;28;19991;-82
2024/03/19 16:46:03;;;;;;;;;;;;;;;;;;4968042;28;20294;-83